sensor_id;sensor_type;location;lat;lon;timestamp;P1;durP1;ratioP1;P2;durP2;ratioP2
35797;SDS011;21918;49.940;7.774;2022-08-19T00:00:21;18.52;;;16.73;;
35797;SDS011;21918;49.940;7.774;2022-08-19T00:02:48;17.90;;;16.25;;
35797;SDS011;21918;49.940;7.774;2022-08-19T00:05:15;17.45;;;15.82;;
35797;SDS011;21918;49.940;7.774;2022-08-19T00:07:44;18.60;;;16.85;;
35797;SDS011;21918;49.940;7.774;2022-08-19T00:10:11;17.52;;;15.77;;
35797;SDS011;21918;49.940;7.774;2022-08-19T00:12:42;15.45;;;13.98;;
35797;SDS011;21918;49.940;7.774;2022-08-19T00:15:10;15.50;;;14.18;;
35797;SDS011;21918;49.940;7.774;2022-08-19T00:17:39;17.02;;;15.30;;
35797;SDS011;21918;49.940;7.774;2022-08-19T00:20:08;16.80;;;15.20;;
35797;SDS011;21918;49.940;7.774;2022-08-19T00:22:41;17.83;;;16.05;;
35797;SDS011;21918;49.940;7.774;2022-08-19T00:25:12;17.92;;;16.33;;
35797;SDS011;21918;49.940;7.774;2022-08-19T00:27:40;19.42;;;17.63;;
35797;SDS011;21918;49.940;7.774;2022-08-19T00:30:09;16.83;;;15.10;;
35797;SDS011;21918;49.940;7.774;2022-08-19T00:32:38;16.83;;;15.23;;
35797;SDS011;21918;49.940;7.774;2022-08-19T00:35:05;16.88;;;15.10;;
35797;SDS011;21918;49.940;7.774;2022-08-19T00:37:36;17.13;;;15.48;;
35797;SDS011;21918;49.940;7.774;2022-08-19T00:40:08;19.05;;;17.17;;
35797;SDS011;21918;49.940;7.774;2022-08-19T00:42:37;18.55;;;16.80;;
35797;SDS011;21918;49.940;7.774;2022-08-19T00:45:08;17.00;;;15.40;;
35797;SDS011;21918;49.940;7.774;2022-08-19T00:47:41;17.27;;;15.48;;
35797;SDS011;21918;49.940;7.774;2022-08-19T00:50:17;18.17;;;16.48;;
35797;SDS011;21918;49.940;7.774;2022-08-19T00:52:48;16.98;;;15.48;;
35797;SDS011;21918;49.940;7.774;2022-08-19T00:55:17;18.40;;;16.60;;
35797;SDS011;21918;49.940;7.774;2022-08-19T00:57:48;16.88;;;15.38;;
35797;SDS011;21918;49.940;7.774;2022-08-19T01:00:21;18.60;;;16.80;;
35797;SDS011;21918;49.940;7.774;2022-08-19T01:02:50;19.20;;;17.50;;
35797;SDS011;21918;49.940;7.774;2022-08-19T01:05:22;18.98;;;17.33;;
35797;SDS011;21918;49.940;7.774;2022-08-19T01:07:52;16.77;;;15.02;;
35797;SDS011;21918;49.940;7.774;2022-08-19T01:10:21;17.15;;;15.52;;
35797;SDS011;21918;49.940;7.774;2022-08-19T01:12:58;18.27;;;16.48;;
35797;SDS011;21918;49.940;7.774;2022-08-19T01:15:29;17.40;;;15.70;;
35797;SDS011;21918;49.940;7.774;2022-08-19T01:18:13;19.13;;;17.33;;
35797;SDS011;21918;49.940;7.774;2022-08-19T01:20:43;17.67;;;15.95;;
35797;SDS011;21918;49.940;7.774;2022-08-19T01:23:11;17.52;;;15.82;;
35797;SDS011;21918;49.940;7.774;2022-08-19T01:25:41;20.13;;;18.05;;
35797;SDS011;21918;49.940;7.774;2022-08-19T01:28:14;17.42;;;15.77;;
35797;SDS011;21918;49.940;7.774;2022-08-19T01:30:42;16.70;;;15.15;;
35797;SDS011;21918;49.940;7.774;2022-08-19T01:33:10;19.75;;;14.95;;
35797;SDS011;21918;49.940;7.774;2022-08-19T01:35:36;16.38;;;14.68;;
35797;SDS011;21918;49.940;7.774;2022-08-19T01:38:04;16.08;;;14.57;;
35797;SDS011;21918;49.940;7.774;2022-08-19T01:40:36;16.17;;;14.60;;
35797;SDS011;21918;49.940;7.774;2022-08-19T01:43:05;15.32;;;13.88;;
35797;SDS011;21918;49.940;7.774;2022-08-19T01:45:33;16.58;;;14.88;;
35797;SDS011;21918;49.940;7.774;2022-08-19T01:48:05;15.32;;;13.88;;
35797;SDS011;21918;49.940;7.774;2022-08-19T01:50:36;15.57;;;13.98;;
35797;SDS011;21918;49.940;7.774;2022-08-19T01:53:04;14.10;;;12.80;;
35797;SDS011;21918;49.940;7.774;2022-08-19T01:55:33;16.65;;;14.95;;
35797;SDS011;21918;49.940;7.774;2022-08-19T01:58:05;13.25;;;12.05;;
35797;SDS011;21918;49.940;7.774;2022-08-19T02:00:36;14.32;;;13.00;;
35797;SDS011;21918;49.940;7.774;2022-08-19T02:03:02;15.23;;;13.73;;
35797;SDS011;21918;49.940;7.774;2022-08-19T02:05:29;14.38;;;12.85;;
35797;SDS011;21918;49.940;7.774;2022-08-19T02:07:56;15.35;;;13.95;;
35797;SDS011;21918;49.940;7.774;2022-08-19T02:10:24;15.25;;;13.77;;
35797;SDS011;21918;49.940;7.774;2022-08-19T02:12:53;12.80;;;11.52;;
35797;SDS011;21918;49.940;7.774;2022-08-19T02:15:20;14.98;;;13.43;;
35797;SDS011;21918;49.940;7.774;2022-08-19T02:17:49;13.98;;;12.68;;
35797;SDS011;21918;49.940;7.774;2022-08-19T02:20:16;15.07;;;13.52;;
35797;SDS011;21918;49.940;7.774;2022-08-19T02:22:43;12.82;;;11.63;;
35797;SDS011;21918;49.940;7.774;2022-08-19T02:25:10;13.63;;;11.95;;
35797;SDS011;21918;49.940;7.774;2022-08-19T02:27:37;12.50;;;11.40;;
35797;SDS011;21918;49.940;7.774;2022-08-19T02:30:07;14.23;;;12.93;;
35797;SDS011;21918;49.940;7.774;2022-08-19T02:32:36;12.70;;;11.50;;
35797;SDS011;21918;49.940;7.774;2022-08-19T02:35:03;14.15;;;12.75;;
35797;SDS011;21918;49.940;7.774;2022-08-19T02:37:31;13.60;;;12.40;;
35797;SDS011;21918;49.940;7.774;2022-08-19T02:40:15;13.32;;;12.02;;
35797;SDS011;21918;49.940;7.774;2022-08-19T02:42:43;13.50;;;12.20;;
35797;SDS011;21918;49.940;7.774;2022-08-19T02:45:12;12.77;;;11.63;;
35797;SDS011;21918;49.940;7.774;2022-08-19T02:47:39;12.63;;;11.43;;
35797;SDS011;21918;49.940;7.774;2022-08-19T02:50:07;13.80;;;12.18;;
35797;SDS011;21918;49.940;7.774;2022-08-19T02:52:34;13.02;;;11.82;;
35797;SDS011;21918;49.940;7.774;2022-08-19T02:55:01;12.57;;;11.50;;
35797;SDS011;21918;49.940;7.774;2022-08-19T02:57:31;12.95;;;11.82;;
35797;SDS011;21918;49.940;7.774;2022-08-19T02:59:58;12.98;;;11.80;;
35797;SDS011;21918;49.940;7.774;2022-08-19T03:02:26;12.82;;;11.63;;
35797;SDS011;21918;49.940;7.774;2022-08-19T03:04:52;12.02;;;10.95;;
35797;SDS011;21918;49.940;7.774;2022-08-19T03:07:19;13.50;;;12.32;;
35797;SDS011;21918;49.940;7.774;2022-08-19T03:09:46;12.45;;;11.35;;
35797;SDS011;21918;49.940;7.774;2022-08-19T03:12:13;12.45;;;11.30;;
35797;SDS011;21918;49.940;7.774;2022-08-19T03:14:40;12.73;;;11.55;;
35797;SDS011;21918;49.940;7.774;2022-08-19T03:17:09;11.50;;;10.40;;
35797;SDS011;21918;49.940;7.774;2022-08-19T03:19:37;12.70;;;11.07;;
35797;SDS011;21918;49.940;7.774;2022-08-19T03:22:04;13.05;;;11.85;;
35797;SDS011;21918;49.940;7.774;2022-08-19T03:24:31;11.77;;;10.68;;
35797;SDS011;21918;49.940;7.774;2022-08-19T03:26:58;12.18;;;10.98;;
35797;SDS011;21918;49.940;7.774;2022-08-19T03:29:25;11.55;;;10.55;;
35797;SDS011;21918;49.940;7.774;2022-08-19T03:31:52;12.38;;;11.07;;
35797;SDS011;21918;49.940;7.774;2022-08-19T03:34:21;12.05;;;10.95;;
35797;SDS011;21918;49.940;7.774;2022-08-19T03:36:52;11.77;;;10.73;;
35797;SDS011;21918;49.940;7.774;2022-08-19T03:39:20;10.93;;;9.82;;
35797;SDS011;21918;49.940;7.774;2022-08-19T03:41:48;10.35;;;9.45;;
35797;SDS011;21918;49.940;7.774;2022-08-19T03:44:16;10.70;;;9.73;;
35797;SDS011;21918;49.940;7.774;2022-08-19T03:46:45;10.55;;;9.38;;
35797;SDS011;21918;49.940;7.774;2022-08-19T03:51:43;11.32;;;10.25;;
35797;SDS011;21918;49.940;7.774;2022-08-19T03:54:17;9.80;;;8.82;;
35797;SDS011;21918;49.940;7.774;2022-08-19T03:56:45;10.30;;;9.30;;
35797;SDS011;21918;49.940;7.774;2022-08-19T03:59:15;9.70;;;8.80;;
35797;SDS011;21918;49.940;7.774;2022-08-19T04:01:51;9.98;;;8.95;;
35797;SDS011;21918;49.940;7.774;2022-08-19T04:04:18;9.68;;;8.77;;
35797;SDS011;21918;49.940;7.774;2022-08-19T04:06:45;10.38;;;9.45;;
35797;SDS011;21918;49.940;7.774;2022-08-19T04:09:12;10.65;;;9.77;;
35797;SDS011;21918;49.940;7.774;2022-08-19T04:11:41;11.50;;;10.50;;
35797;SDS011;21918;49.940;7.774;2022-08-19T04:14:13;11.40;;;10.27;;
35797;SDS011;21918;49.940;7.774;2022-08-19T04:16:44;11.50;;;10.40;;
35797;SDS011;21918;49.940;7.774;2022-08-19T04:19:14;11.85;;;10.73;;
35797;SDS011;21918;49.940;7.774;2022-08-19T04:21:44;11.30;;;10.30;;
35797;SDS011;21918;49.940;7.774;2022-08-19T04:24:13;11.30;;;10.20;;
35797;SDS011;21918;49.940;7.774;2022-08-19T04:26:41;11.02;;;9.75;;
35797;SDS011;21918;49.940;7.774;2022-08-19T04:29:13;9.75;;;8.85;;
35797;SDS011;21918;49.940;7.774;2022-08-19T04:31:41;10.68;;;9.68;;
35797;SDS011;21918;49.940;7.774;2022-08-19T04:34:10;10.98;;;10.02;;
35797;SDS011;21918;49.940;7.774;2022-08-19T04:36:39;11.07;;;9.98;;
35797;SDS011;21918;49.940;7.774;2022-08-19T04:39:08;13.77;;;11.65;;
35797;SDS011;21918;49.940;7.774;2022-08-19T04:41:36;11.63;;;10.38;;
35797;SDS011;21918;49.940;7.774;2022-08-19T04:44:22;10.73;;;9.48;;
35797;SDS011;21918;49.940;7.774;2022-08-19T04:46:49;10.35;;;9.32;;
35797;SDS011;21918;49.940;7.774;2022-08-19T04:49:19;9.70;;;8.80;;
35797;SDS011;21918;49.940;7.774;2022-08-19T04:51:51;11.52;;;10.43;;
35797;SDS011;21918;49.940;7.774;2022-08-19T04:54:20;12.40;;;11.10;;
35797;SDS011;21918;49.940;7.774;2022-08-19T04:56:48;10.32;;;9.32;;
35797;SDS011;21918;49.940;7.774;2022-08-19T04:59:16;10.18;;;9.18;;
35797;SDS011;21918;49.940;7.774;2022-08-19T05:01:45;9.88;;;8.88;;
35797;SDS011;21918;49.940;7.774;2022-08-19T05:04:15;10.70;;;9.70;;
35797;SDS011;21918;49.940;7.774;2022-08-19T05:06:44;9.93;;;8.93;;
35797;SDS011;21918;49.940;7.774;2022-08-19T05:09:19;10.43;;;9.43;;
35797;SDS011;21918;49.940;7.774;2022-08-19T05:11:46;10.90;;;9.85;;
35797;SDS011;21918;49.940;7.774;2022-08-19T05:14:19;9.75;;;8.82;;
35797;SDS011;21918;49.940;7.774;2022-08-19T05:16:56;10.25;;;9.25;;
35797;SDS011;21918;49.940;7.774;2022-08-19T05:19:26;9.85;;;8.90;;
35797;SDS011;21918;49.940;7.774;2022-08-19T05:22:10;9.88;;;8.88;;
35797;SDS011;21918;49.940;7.774;2022-08-19T05:24:56;11.38;;;9.52;;
35797;SDS011;21918;49.940;7.774;2022-08-19T05:27:22;11.15;;;10.05;;
35797;SDS011;21918;49.940;7.774;2022-08-19T05:29:52;11.88;;;10.63;;
35797;SDS011;21918;49.940;7.774;2022-08-19T05:32:21;10.60;;;9.60;;
35797;SDS011;21918;49.940;7.774;2022-08-19T05:34:48;10.25;;;9.25;;
35797;SDS011;21918;49.940;7.774;2022-08-19T05:37:17;13.43;;;9.50;;
35797;SDS011;21918;49.940;7.774;2022-08-19T05:39:47;9.85;;;8.98;;
35797;SDS011;21918;49.940;7.774;2022-08-19T05:42:16;10.15;;;8.88;;
35797;SDS011;21918;49.940;7.774;2022-08-19T05:44:45;11.80;;;10.07;;
35797;SDS011;21918;49.940;7.774;2022-08-19T05:47:13;10.85;;;9.85;;
35797;SDS011;21918;49.940;7.774;2022-08-19T05:49:46;10.07;;;9.07;;
35797;SDS011;21918;49.940;7.774;2022-08-19T05:52:16;10.63;;;9.63;;
35797;SDS011;21918;49.940;7.774;2022-08-19T05:54:44;8.93;;;7.97;;
35797;SDS011;21918;49.940;7.774;2022-08-19T05:57:12;11.13;;;9.00;;
35797;SDS011;21918;49.940;7.774;2022-08-19T05:59:39;10.32;;;9.27;;
35797;SDS011;21918;49.940;7.774;2022-08-19T06:02:09;9.57;;;8.77;;
35797;SDS011;21918;49.940;7.774;2022-08-19T06:04:35;9.48;;;8.57;;
35797;SDS011;21918;49.940;7.774;2022-08-19T06:07:04;11.20;;;9.38;;
35797;SDS011;21918;49.940;7.774;2022-08-19T06:09:30;12.70;;;10.45;;
35797;SDS011;21918;49.940;7.774;2022-08-19T06:11:57;11.30;;;9.25;;
35797;SDS011;21918;49.940;7.774;2022-08-19T06:14:34;9.55;;;8.75;;
35797;SDS011;21918;49.940;7.774;2022-08-19T06:17:01;10.43;;;9.52;;
35797;SDS011;21918;49.940;7.774;2022-08-19T06:19:29;9.45;;;8.55;;
35797;SDS011;21918;49.940;7.774;2022-08-19T06:21:57;9.57;;;8.63;;
35797;SDS011;21918;49.940;7.774;2022-08-19T06:24:27;11.80;;;10.73;;
35797;SDS011;21918;49.940;7.774;2022-08-19T06:26:55;9.60;;;8.60;;
35797;SDS011;21918;49.940;7.774;2022-08-19T06:29:24;10.07;;;9.18;;
35797;SDS011;21918;49.940;7.774;2022-08-19T06:31:53;16.80;;;15.05;;
35797;SDS011;21918;49.940;7.774;2022-08-19T06:34:22;16.98;;;13.80;;
35797;SDS011;21918;49.940;7.774;2022-08-19T06:36:52;13.27;;;10.60;;
35797;SDS011;21918;49.940;7.774;2022-08-19T06:39:21;12.02;;;10.57;;
35797;SDS011;21918;49.940;7.774;2022-08-19T06:41:52;11.75;;;10.55;;
35797;SDS011;21918;49.940;7.774;2022-08-19T06:44:22;13.90;;;10.48;;
35797;SDS011;21918;49.940;7.774;2022-08-19T06:46:50;13.85;;;12.30;;
35797;SDS011;21918;49.940;7.774;2022-08-19T06:49:19;12.85;;;11.00;;
35797;SDS011;21918;49.940;7.774;2022-08-19T06:51:47;15.18;;;13.38;;
35797;SDS011;21918;49.940;7.774;2022-08-19T06:54:17;12.45;;;11.15;;
35797;SDS011;21918;49.940;7.774;2022-08-19T06:56:44;19.83;;;13.15;;
35797;SDS011;21918;49.940;7.774;2022-08-19T06:59:14;20.95;;;12.35;;
35797;SDS011;21918;49.940;7.774;2022-08-19T07:01:43;14.02;;;12.57;;
35797;SDS011;21918;49.940;7.774;2022-08-19T07:04:12;14.40;;;12.90;;
35797;SDS011;21918;49.940;7.774;2022-08-19T07:06:41;14.02;;;12.52;;
35797;SDS011;21918;49.940;7.774;2022-08-19T07:09:09;15.82;;;12.43;;
35797;SDS011;21918;49.940;7.774;2022-08-19T07:11:43;15.40;;;13.80;;
35797;SDS011;21918;49.940;7.774;2022-08-19T07:14:13;17.75;;;14.90;;
35797;SDS011;21918;49.940;7.774;2022-08-19T07:16:42;16.98;;;15.18;;
35797;SDS011;21918;49.940;7.774;2022-08-19T07:19:13;15.68;;;14.07;;
35797;SDS011;21918;49.940;7.774;2022-08-19T07:21:40;18.55;;;15.95;;
35797;SDS011;21918;49.940;7.774;2022-08-19T07:24:11;17.67;;;15.02;;
35797;SDS011;21918;49.940;7.774;2022-08-19T07:26:39;19.88;;;16.42;;
35797;SDS011;21918;49.940;7.774;2022-08-19T07:29:08;17.20;;;14.68;;
35797;SDS011;21918;49.940;7.774;2022-08-19T07:31:40;17.23;;;14.82;;
35797;SDS011;21918;49.940;7.774;2022-08-19T07:34:09;20.90;;;16.63;;
35797;SDS011;21918;49.940;7.774;2022-08-19T07:36:39;22.42;;;16.98;;
35797;SDS011;21918;49.940;7.774;2022-08-19T07:39:10;18.10;;;15.82;;
35797;SDS011;21918;49.940;7.774;2022-08-19T07:41:42;18.60;;;16.15;;
35797;SDS011;21918;49.940;7.774;2022-08-19T07:44:09;21.98;;;17.52;;
35797;SDS011;21918;49.940;7.774;2022-08-19T07:46:43;16.83;;;15.02;;
35797;SDS011;21918;49.940;7.774;2022-08-19T07:49:12;23.02;;;15.75;;
35797;SDS011;21918;49.940;7.774;2022-08-19T07:51:42;18.17;;;16.20;;
35797;SDS011;21918;49.940;7.774;2022-08-19T07:54:09;21.80;;;16.90;;
35797;SDS011;21918;49.940;7.774;2022-08-19T07:56:38;17.50;;;15.45;;
35797;SDS011;21918;49.940;7.774;2022-08-19T07:59:05;20.33;;;15.80;;
35797;SDS011;21918;49.940;7.774;2022-08-19T08:01:32;18.15;;;16.25;;
35797;SDS011;21918;49.940;7.774;2022-08-19T08:04:00;17.88;;;16.02;;
35797;SDS011;21918;49.940;7.774;2022-08-19T08:06:45;15.85;;;14.25;;
35797;SDS011;21918;49.940;7.774;2022-08-19T08:09:50;18.70;;;16.15;;
35797;SDS011;21918;49.940;7.774;2022-08-19T08:12:23;15.90;;;14.35;;
35797;SDS011;21918;49.940;7.774;2022-08-19T08:14:54;19.25;;;15.70;;
35797;SDS011;21918;49.940;7.774;2022-08-19T08:17:25;15.95;;;14.32;;
35797;SDS011;21918;49.940;7.774;2022-08-19T08:19:54;18.48;;;16.45;;
35797;SDS011;21918;49.940;7.774;2022-08-19T08:22:22;16.90;;;14.68;;
35797;SDS011;21918;49.940;7.774;2022-08-19T08:25:04;15.32;;;13.60;;
35797;SDS011;21918;49.940;7.774;2022-08-19T08:27:35;18.75;;;16.10;;
35797;SDS011;21918;49.940;7.774;2022-08-19T08:30:05;19.83;;;17.70;;
35797;SDS011;21918;49.940;7.774;2022-08-19T08:32:34;20.45;;;18.38;;
35797;SDS011;21918;49.940;7.774;2022-08-19T08:35:11;20.05;;;16.48;;
35797;SDS011;21918;49.940;7.774;2022-08-19T08:37:41;17.83;;;16.02;;
35797;SDS011;21918;49.940;7.774;2022-08-19T08:40:09;16.35;;;14.43;;
35797;SDS011;21918;49.940;7.774;2022-08-19T08:42:46;20.77;;;18.23;;
35797;SDS011;21918;49.940;7.774;2022-08-19T08:45:19;27.52;;;20.17;;
35797;SDS011;21918;49.940;7.774;2022-08-19T08:47:50;18.45;;;16.50;;
35797;SDS011;21918;49.940;7.774;2022-08-19T08:50:26;18.95;;;16.98;;
35797;SDS011;21918;49.940;7.774;2022-08-19T08:53:01;16.63;;;14.93;;
35797;SDS011;21918;49.940;7.774;2022-08-19T08:55:30;19.90;;;17.83;;
35797;SDS011;21918;49.940;7.774;2022-08-19T08:57:59;20.27;;;18.27;;
35797;SDS011;21918;49.940;7.774;2022-08-19T09:00:28;15.32;;;13.75;;
35797;SDS011;21918;49.940;7.774;2022-08-19T09:02:57;14.32;;;13.07;;
35797;SDS011;21918;49.940;7.774;2022-08-19T09:05:32;14.95;;;13.45;;
35797;SDS011;21918;49.940;7.774;2022-08-19T09:08:14;15.70;;;14.25;;
35797;SDS011;21918;49.940;7.774;2022-08-19T09:10:49;16.15;;;13.82;;
35797;SDS011;21918;49.940;7.774;2022-08-19T09:13:23;14.18;;;12.77;;
35797;SDS011;21918;49.940;7.774;2022-08-19T09:16:02;13.77;;;12.43;;
35797;SDS011;21918;49.940;7.774;2022-08-19T09:18:39;13.25;;;11.82;;
35797;SDS011;21918;49.940;7.774;2022-08-19T09:21:08;13.98;;;12.65;;
35797;SDS011;21918;49.940;7.774;2022-08-19T09:23:36;11.90;;;10.77;;
35797;SDS011;21918;49.940;7.774;2022-08-19T09:26:06;13.57;;;10.98;;
35797;SDS011;21918;49.940;7.774;2022-08-19T09:28:34;13.38;;;12.18;;
35797;SDS011;21918;49.940;7.774;2022-08-19T09:31:02;13.45;;;12.02;;
35797;SDS011;21918;49.940;7.774;2022-08-19T09:33:29;12.90;;;10.75;;
35797;SDS011;21918;49.940;7.774;2022-08-19T09:36:06;12.68;;;10.82;;
35797;SDS011;21918;49.940;7.774;2022-08-19T09:38:35;13.70;;;9.63;;
35797;SDS011;21918;49.940;7.774;2022-08-19T09:41:06;10.63;;;9.48;;
35797;SDS011;21918;49.940;7.774;2022-08-19T09:43:34;9.95;;;9.02;;
35797;SDS011;21918;49.940;7.774;2022-08-19T09:46:01;9.60;;;8.82;;
35797;SDS011;21918;49.940;7.774;2022-08-19T09:48:30;9.48;;;8.38;;
35797;SDS011;21918;49.940;7.774;2022-08-19T09:51:01;10.50;;;9.60;;
35797;SDS011;21918;49.940;7.774;2022-08-19T09:53:30;10.38;;;9.38;;
35797;SDS011;21918;49.940;7.774;2022-08-19T09:55:58;9.20;;;8.40;;
35797;SDS011;21918;49.940;7.774;2022-08-19T09:58:24;9.02;;;8.10;;
35797;SDS011;21918;49.940;7.774;2022-08-19T10:00:53;9.60;;;8.70;;
35797;SDS011;21918;49.940;7.774;2022-08-19T10:03:19;9.40;;;8.50;;
35797;SDS011;21918;49.940;7.774;2022-08-19T10:05:46;7.85;;;6.97;;
35797;SDS011;21918;49.940;7.774;2022-08-19T10:08:17;10.57;;;7.88;;
35797;SDS011;21918;49.940;7.774;2022-08-19T10:10:46;8.48;;;7.65;;
35797;SDS011;21918;49.940;7.774;2022-08-19T10:13:16;9.32;;;7.90;;
35797;SDS011;21918;49.940;7.774;2022-08-19T10:15:46;8.05;;;7.38;;
35797;SDS011;21918;49.940;7.774;2022-08-19T10:18:15;8.25;;;7.55;;
35797;SDS011;21918;49.940;7.774;2022-08-19T10:20:43;9.20;;;8.30;;
35797;SDS011;21918;49.940;7.774;2022-08-19T10:23:10;7.72;;;7.05;;
35797;SDS011;21918;49.940;7.774;2022-08-19T10:25:37;8.45;;;7.75;;
35797;SDS011;21918;49.940;7.774;2022-08-19T10:28:04;8.45;;;7.65;;
35797;SDS011;21918;49.940;7.774;2022-08-19T10:30:33;8.48;;;7.68;;
35797;SDS011;21918;49.940;7.774;2022-08-19T10:33:01;8.40;;;7.65;;
35797;SDS011;21918;49.940;7.774;2022-08-19T10:35:28;7.93;;;7.22;;
35797;SDS011;21918;49.940;7.774;2022-08-19T10:37:55;8.95;;;7.72;;
35797;SDS011;21918;49.940;7.774;2022-08-19T10:40:24;9.95;;;7.53;;
35797;SDS011;21918;49.940;7.774;2022-08-19T10:42:51;8.10;;;7.40;;
35797;SDS011;21918;49.940;7.774;2022-08-19T10:45:18;7.07;;;6.38;;
35797;SDS011;21918;49.940;7.774;2022-08-19T10:47:48;6.95;;;6.25;;
35797;SDS011;21918;49.940;7.774;2022-08-19T10:50:15;7.43;;;6.82;;
35797;SDS011;21918;49.940;7.774;2022-08-19T10:53:03;6.80;;;6.10;;
35797;SDS011;21918;49.940;7.774;2022-08-19T10:55:30;6.40;;;5.80;;
35797;SDS011;21918;49.940;7.774;2022-08-19T10:58:18;6.90;;;6.30;;
35797;SDS011;21918;49.940;7.774;2022-08-19T11:00:50;7.10;;;6.60;;
35797;SDS011;21918;49.940;7.774;2022-08-19T11:03:20;5.75;;;5.35;;
35797;SDS011;21918;49.940;7.774;2022-08-19T11:05:51;7.20;;;6.47;;
35797;SDS011;21918;49.940;7.774;2022-08-19T11:08:24;9.00;;;7.10;;
35797;SDS011;21918;49.940;7.774;2022-08-19T11:10:51;7.93;;;5.90;;
35797;SDS011;21918;49.940;7.774;2022-08-19T11:13:22;7.85;;;5.60;;
35797;SDS011;21918;49.940;7.774;2022-08-19T11:15:55;6.82;;;6.22;;
35797;SDS011;21918;49.940;7.774;2022-08-19T11:18:27;6.45;;;5.88;;
35797;SDS011;21918;49.940;7.774;2022-08-19T11:20:54;8.60;;;6.65;;
35797;SDS011;21918;49.940;7.774;2022-08-19T11:23:21;6.57;;;6.07;;
35797;SDS011;21918;49.940;7.774;2022-08-19T11:25:47;10.77;;;6.90;;
35797;SDS011;21918;49.940;7.774;2022-08-19T11:28:15;7.78;;;7.07;;
35797;SDS011;21918;49.940;7.774;2022-08-19T11:30:42;7.47;;;6.63;;
35797;SDS011;21918;49.940;7.774;2022-08-19T11:33:08;7.40;;;6.70;;
35797;SDS011;21918;49.940;7.774;2022-08-19T11:35:40;7.93;;;7.18;;
35797;SDS011;21918;49.940;7.774;2022-08-19T11:38:09;8.18;;;7.47;;
35797;SDS011;21918;49.940;7.774;2022-08-19T11:40:36;7.53;;;6.82;;
35797;SDS011;21918;49.940;7.774;2022-08-19T11:43:03;7.93;;;7.10;;
35797;SDS011;21918;49.940;7.774;2022-08-19T11:45:30;8.15;;;7.47;;
35797;SDS011;21918;49.940;7.774;2022-08-19T11:47:57;7.13;;;6.28;;
35797;SDS011;21918;49.940;7.774;2022-08-19T11:50:25;8.05;;;7.45;;
35797;SDS011;21918;49.940;7.774;2022-08-19T11:52:54;7.22;;;6.63;;
35797;SDS011;21918;49.940;7.774;2022-08-19T11:55:22;7.55;;;6.88;;
35797;SDS011;21918;49.940;7.774;2022-08-19T11:57:49;7.30;;;6.57;;
35797;SDS011;21918;49.940;7.774;2022-08-19T12:00:16;6.90;;;6.30;;
35797;SDS011;21918;49.940;7.774;2022-08-19T12:02:43;7.45;;;6.85;;
35797;SDS011;21918;49.940;7.774;2022-08-19T12:05:11;7.78;;;7.07;;
35797;SDS011;21918;49.940;7.774;2022-08-19T12:07:38;7.80;;;7.10;;
35797;SDS011;21918;49.940;7.774;2022-08-19T12:10:07;6.85;;;6.25;;
35797;SDS011;21918;49.940;7.774;2022-08-19T12:12:35;6.82;;;6.28;;
35797;SDS011;21918;49.940;7.774;2022-08-19T12:15:05;6.00;;;5.50;;
35797;SDS011;21918;49.940;7.774;2022-08-19T12:17:33;6.93;;;6.30;;
35797;SDS011;21918;49.940;7.774;2022-08-19T12:20:00;7.40;;;6.70;;
35797;SDS011;21918;49.940;7.774;2022-08-19T12:22:27;6.70;;;6.15;;
35797;SDS011;21918;49.940;7.774;2022-08-19T12:24:54;6.63;;;6.03;;
35797;SDS011;21918;49.940;7.774;2022-08-19T12:27:22;6.95;;;6.35;;
35797;SDS011;21918;49.940;7.774;2022-08-19T12:29:48;7.47;;;6.78;;
35797;SDS011;21918;49.940;7.774;2022-08-19T12:32:15;6.18;;;5.70;;
35797;SDS011;21918;49.940;7.774;2022-08-19T12:34:42;6.65;;;6.15;;
35797;SDS011;21918;49.940;7.774;2022-08-19T12:37:09;6.13;;;5.63;;
35797;SDS011;21918;49.940;7.774;2022-08-19T12:39:37;6.03;;;5.63;;
35797;SDS011;21918;49.940;7.774;2022-08-19T12:42:06;9.00;;;7.40;;
35797;SDS011;21918;49.940;7.774;2022-08-19T12:44:36;6.78;;;6.25;;
35797;SDS011;21918;49.940;7.774;2022-08-19T12:47:04;6.43;;;5.95;;
35797;SDS011;21918;49.940;7.774;2022-08-19T12:49:33;7.10;;;6.38;;
35797;SDS011;21918;49.940;7.774;2022-08-19T12:52:02;7.88;;;6.40;;
35797;SDS011;21918;49.940;7.774;2022-08-19T12:54:29;7.32;;;6.63;;
35797;SDS011;21918;49.940;7.774;2022-08-19T12:56:56;7.80;;;7.10;;
35797;SDS011;21918;49.940;7.774;2022-08-19T12:59:24;8.02;;;7.03;;
35797;SDS011;21918;49.940;7.774;2022-08-19T13:01:52;8.40;;;7.55;;
35797;SDS011;21918;49.940;7.774;2022-08-19T13:04:19;7.90;;;7.15;;
35797;SDS011;21918;49.940;7.774;2022-08-19T13:06:46;8.63;;;7.65;;
35797;SDS011;21918;49.940;7.774;2022-08-19T13:09:12;7.97;;;6.93;;
35797;SDS011;21918;49.940;7.774;2022-08-19T13:11:39;8.18;;;7.13;;
35797;SDS011;21918;49.940;7.774;2022-08-19T13:14:13;8.77;;;8.00;;
35797;SDS011;21918;49.940;7.774;2022-08-19T13:16:40;8.25;;;7.55;;
35797;SDS011;21918;49.940;7.774;2022-08-19T13:19:09;8.00;;;6.82;;
35797;SDS011;21918;49.940;7.774;2022-08-19T13:21:37;11.40;;;7.55;;
35797;SDS011;21918;49.940;7.774;2022-08-19T13:24:03;9.18;;;8.30;;
35797;SDS011;21918;49.940;7.774;2022-08-19T13:26:31;8.63;;;7.93;;
35797;SDS011;21918;49.940;7.774;2022-08-19T13:28:58;8.98;;;7.30;;
35797;SDS011;21918;49.940;7.774;2022-08-19T13:31:44;8.50;;;7.68;;
35797;SDS011;21918;49.940;7.774;2022-08-19T13:34:31;9.45;;;8.65;;
35797;SDS011;21918;49.940;7.774;2022-08-19T13:37:01;7.93;;;7.13;;
35797;SDS011;21918;49.940;7.774;2022-08-19T13:39:29;8.98;;;8.07;;
35797;SDS011;21918;49.940;7.774;2022-08-19T13:41:57;9.40;;;8.60;;
35797;SDS011;21918;49.940;7.774;2022-08-19T13:44:26;8.60;;;7.72;;
35797;SDS011;21918;49.940;7.774;2022-08-19T13:46:54;9.10;;;8.20;;
35797;SDS011;21918;49.940;7.774;2022-08-19T13:49:21;8.73;;;7.93;;
35797;SDS011;21918;49.940;7.774;2022-08-19T13:51:50;8.43;;;7.72;;
35797;SDS011;21918;49.940;7.774;2022-08-19T13:54:16;9.35;;;7.45;;
35797;SDS011;21918;49.940;7.774;2022-08-19T13:56:44;9.23;;;7.38;;
35797;SDS011;21918;49.940;7.774;2022-08-19T13:59:11;8.35;;;7.65;;
35797;SDS011;21918;49.940;7.774;2022-08-19T14:01:38;9.50;;;8.70;;
35797;SDS011;21918;49.940;7.774;2022-08-19T14:04:06;9.30;;;8.45;;
35797;SDS011;21918;49.940;7.774;2022-08-19T14:06:34;7.88;;;7.18;;
35797;SDS011;21918;49.940;7.774;2022-08-19T14:09:02;8.73;;;7.93;;
35797;SDS011;21918;49.940;7.774;2022-08-19T14:11:29;9.82;;;8.93;;
35797;SDS011;21918;49.940;7.774;2022-08-19T14:13:57;9.85;;;8.68;;
35797;SDS011;21918;49.940;7.774;2022-08-19T14:16:24;9.25;;;8.45;;
35797;SDS011;21918;49.940;7.774;2022-08-19T14:18:53;9.90;;;8.90;;
35797;SDS011;21918;49.940;7.774;2022-08-19T14:21:21;11.65;;;9.48;;
35797;SDS011;21918;49.940;7.774;2022-08-19T14:23:50;9.70;;;8.75;;
35797;SDS011;21918;49.940;7.774;2022-08-19T14:26:18;8.98;;;8.23;;
35797;SDS011;21918;49.940;7.774;2022-08-19T14:28:46;8.95;;;8.05;;
35797;SDS011;21918;49.940;7.774;2022-08-19T14:31:14;9.27;;;8.30;;
35797;SDS011;21918;49.940;7.774;2022-08-19T14:33:44;9.20;;;8.30;;
35797;SDS011;21918;49.940;7.774;2022-08-19T14:36:11;8.13;;;7.43;;
35797;SDS011;21918;49.940;7.774;2022-08-19T14:38:39;9.13;;;8.30;;
35797;SDS011;21918;49.940;7.774;2022-08-19T14:41:07;8.10;;;7.40;;
35797;SDS011;21918;49.940;7.774;2022-08-19T14:43:37;9.20;;;8.05;;
35797;SDS011;21918;49.940;7.774;2022-08-19T14:46:04;8.52;;;7.72;;
35797;SDS011;21918;49.940;7.774;2022-08-19T14:48:31;8.50;;;7.72;;